createdAt,value
2023-02-13T00:00:34.729Z,26.90
2023-02-13T00:03:20.144Z,25.30
2023-02-13T00:05:46.906Z,29.20
2023-02-13T00:08:13.600Z,26.80
2023-02-13T00:10:40.456Z,25.30
2023-02-13T00:13:07.073Z,32.20
2023-02-13T00:15:33.789Z,29.40
2023-02-13T00:18:02.507Z,25.90
2023-02-13T00:20:29.255Z,28.40
2023-02-13T00:22:58.329Z,28.80
2023-02-13T00:25:26.298Z,24.30
2023-02-13T00:27:53.515Z,24.90
2023-02-13T00:30:20.954Z,25.50
2023-02-13T00:32:47.565Z,25.00
2023-02-13T00:35:14.176Z,26.80
2023-02-13T00:37:40.827Z,23.40
2023-02-13T00:40:08.211Z,21.80
2023-02-13T00:42:34.786Z,26.80
2023-02-13T00:45:01.374Z,20.70
2023-02-13T00:47:28.002Z,24.70
2023-02-13T00:49:54.625Z,28.50
2023-02-13T00:52:22.597Z,25.20
2023-02-13T00:54:49.298Z,21.30
2023-02-13T00:57:15.862Z,19.40
2023-02-13T00:59:42.619Z,23.20
2023-02-13T01:02:09.447Z,23.70
2023-02-13T01:04:36.450Z,24.40
2023-02-13T01:07:03.136Z,20.70
2023-02-13T01:09:29.657Z,24.60
2023-02-13T01:11:56.400Z,21.20
2023-02-13T01:14:23.180Z,22.20
2023-02-13T01:16:49.799Z,21.90
2023-02-13T01:19:16.445Z,23.80
2023-02-13T01:21:43.799Z,19.50
2023-02-13T01:24:10.472Z,20.80
2023-02-13T01:26:39.649Z,18.80
2023-02-13T01:29:06.597Z,20.40
2023-02-13T01:31:33.553Z,22.40
2023-02-13T01:34:00.264Z,21.40
2023-02-13T01:36:27.199Z,22.80
2023-02-13T01:38:58.601Z,19.30
2023-02-13T01:41:27.017Z,20.00
2023-02-13T01:44:00.120Z,17.40
2023-02-13T01:46:39.454Z,20.70
2023-02-13T01:49:18.216Z,20.40
2023-02-13T01:51:47.041Z,18.30
2023-02-13T01:54:19.035Z,20.40
2023-02-13T01:56:50.798Z,19.40
2023-02-13T01:59:25.683Z,21.20
2023-02-13T02:01:53.317Z,22.80
2023-02-13T02:04:28.824Z,23.90
2023-02-13T02:07:01.536Z,17.60
2023-02-13T02:12:05.855Z,19.20
2023-02-13T02:14:33.002Z,23.30
2023-02-13T02:16:59.612Z,18.70
2023-02-13T02:19:53.101Z,21.20
2023-02-13T02:22:28.597Z,21.80
2023-02-13T02:25:17.144Z,18.60
2023-02-13T02:28:24.482Z,22.00
2023-02-13T02:31:21.440Z,22.70
2023-02-13T02:34:41.310Z,18.70
2023-02-13T02:37:19.822Z,23.20
2023-02-13T02:40:15.588Z,24.10
2023-02-13T02:42:52.677Z,18.10
2023-02-13T02:45:31.689Z,21.30
2023-02-13T02:48:39.974Z,18.40
2023-02-13T02:51:21.772Z,25.90
2023-02-13T02:54:01.705Z,24.90
2023-02-13T02:56:40.403Z,18.10
2023-02-13T02:59:30.430Z,22.70
2023-02-13T03:02:16.846Z,47.00
2023-02-13T03:05:09.360Z,37.10
2023-02-13T03:07:36.054Z,25.10
2023-02-13T03:10:31.778Z,26.10
2023-02-13T03:13:36.412Z,24.30
2023-02-13T03:16:21.803Z,20.60
2023-02-13T03:19:14.388Z,22.20
2023-02-13T03:22:15.353Z,19.70
2023-02-13T03:25:34.785Z,24.20
2023-02-13T03:28:27.722Z,21.90
2023-02-13T03:31:12.805Z,24.20
2023-02-13T03:33:59.504Z,21.70
2023-02-13T03:37:18.170Z,26.20
2023-02-13T03:40:09.324Z,19.90
2023-02-13T03:42:50.142Z,20.40
2023-02-13T03:45:46.528Z,20.70
2023-02-13T03:48:45.618Z,22.20
2023-02-13T03:51:23.424Z,22.40
2023-02-13T03:53:55.775Z,18.70
2023-02-13T03:56:41.194Z,20.40
2023-02-13T03:59:17.747Z,21.20
2023-02-13T04:02:05.087Z,21.50
2023-02-13T04:04:54.077Z,18.20
2023-02-13T04:07:31.535Z,17.80
2023-02-13T04:10:13.981Z,23.10
2023-02-13T04:12:49.586Z,17.60
2023-02-13T04:15:21.764Z,16.80
2023-02-13T04:17:55.206Z,17.00
2023-02-13T04:20:21.851Z,19.20
2023-02-13T04:22:48.463Z,18.00
2023-02-13T04:25:17.241Z,19.30
2023-02-13T04:27:44.032Z,19.00
2023-02-13T04:30:11.602Z,18.30
2023-02-13T04:32:38.253Z,17.40
2023-02-13T04:35:05.406Z,20.60
2023-02-13T04:37:32.360Z,20.80
2023-02-13T04:39:59.036Z,21.80
2023-02-13T04:42:25.666Z,20.90
2023-02-13T04:44:52.197Z,19.10
2023-02-13T04:47:18.837Z,21.10
2023-02-13T04:49:45.883Z,21.60
2023-02-13T04:52:14.722Z,21.70
2023-02-13T04:54:41.418Z,18.10
2023-02-13T04:57:08.225Z,18.40
2023-02-13T04:59:34.963Z,23.20
2023-02-13T05:02:01.495Z,21.70
2023-02-13T05:04:28.383Z,22.50
2023-02-13T05:06:55.242Z,18.30
2023-02-13T05:09:21.973Z,17.70
2023-02-13T05:11:52.349Z,21.20
2023-02-13T05:14:19.098Z,19.50
2023-02-13T05:16:46.714Z,20.60
2023-02-13T05:19:13.242Z,18.20
2023-02-13T05:21:58.354Z,22.40
2023-02-13T05:24:25.213Z,21.10
2023-02-13T05:26:51.736Z,19.50
2023-02-13T05:29:18.572Z,18.20
2023-02-13T05:31:56.911Z,18.10
2023-02-13T05:34:26.337Z,19.80
2023-02-13T05:36:53.424Z,17.40
2023-02-13T05:39:20.588Z,18.30
2023-02-13T05:41:48.273Z,23.80
2023-02-13T05:44:15.456Z,18.80
2023-02-13T05:46:45.474Z,17.20
2023-02-13T05:49:13.587Z,19.60
2023-02-13T05:51:41.657Z,16.20
2023-02-13T05:54:08.502Z,17.70
2023-02-13T05:56:35.300Z,18.20
2023-02-13T05:59:02.034Z,19.50
2023-02-13T06:01:28.908Z,18.50
2023-02-13T06:03:58.471Z,20.00
2023-02-13T06:06:25.710Z,19.30
2023-02-13T06:08:52.600Z,20.70
2023-02-13T06:11:31.270Z,17.20
2023-02-13T06:13:57.928Z,21.60
2023-02-13T06:16:24.629Z,18.40
2023-02-13T06:18:51.425Z,20.40
2023-02-13T06:21:17.982Z,17.60
2023-02-13T06:23:44.616Z,18.80
2023-02-13T06:26:11.213Z,21.40
2023-02-13T06:28:37.913Z,23.90
2023-02-13T06:31:04.800Z,20.40
2023-02-13T06:33:31.736Z,20.10
2023-02-13T06:35:58.395Z,20.20
2023-02-13T06:38:25.157Z,23.00
2023-02-13T06:40:51.807Z,23.10
2023-02-13T06:43:18.703Z,25.80
2023-02-13T06:45:46.517Z,24.70
2023-02-13T06:48:13.872Z,23.50
2023-02-13T06:50:40.619Z,22.90
2023-02-13T06:53:07.437Z,23.90
2023-02-13T06:55:35.233Z,22.60
2023-02-13T06:58:05.330Z,22.20
2023-02-13T07:00:32.135Z,19.30
2023-02-13T07:03:04.826Z,18.60
2023-02-13T07:05:35.925Z,20.60
2023-02-13T07:08:02.598Z,18.50
2023-02-13T07:10:31.836Z,19.40
2023-02-13T07:13:05.810Z,17.20
2023-02-13T07:15:34.489Z,19.40
2023-02-13T07:18:01.741Z,18.40
2023-02-13T07:20:28.722Z,18.50
2023-02-13T07:22:59.938Z,19.50
2023-02-13T07:25:27.694Z,17.90
2023-02-13T07:27:54.653Z,17.80
2023-02-13T07:30:21.453Z,15.80
2023-02-13T07:32:48.292Z,15.80
2023-02-13T07:35:15.077Z,18.00
2023-02-13T07:37:41.677Z,18.10
2023-02-13T07:40:09.106Z,17.20
2023-02-13T07:42:35.892Z,14.10
2023-02-13T07:45:05.179Z,15.10
2023-02-13T07:47:33.770Z,13.90
2023-02-13T07:50:02.310Z,14.90
2023-02-13T07:52:29.021Z,12.40
2023-02-13T07:54:55.585Z,13.70
2023-02-13T07:57:22.276Z,13.10
2023-02-13T07:59:48.930Z,15.20
2023-02-13T08:02:16.315Z,15.90
2023-02-13T08:04:46.318Z,17.20
2023-02-13T08:07:17.921Z,15.40
2023-02-13T08:10:03.770Z,17.40
2023-02-13T08:12:32.335Z,13.70
2023-02-13T08:14:59.189Z,15.20
2023-02-13T08:17:25.837Z,16.00
2023-02-13T08:19:52.387Z,13.90
2023-02-13T08:22:19.122Z,15.90
2023-02-13T08:24:46.172Z,15.50
2023-02-13T08:27:14.387Z,19.10
2023-02-13T08:29:41.571Z,18.20
2023-02-13T08:32:08.453Z,19.60
2023-02-13T08:34:35.216Z,20.50
2023-02-13T08:37:02.843Z,21.90
2023-02-13T08:39:29.441Z,22.70
2023-02-13T08:41:56.187Z,23.10
2023-02-13T08:44:22.721Z,23.60
2023-02-13T08:46:49.388Z,23.80
2023-02-13T08:49:16.177Z,24.10
2023-02-13T08:51:42.853Z,20.00
2023-02-13T08:54:09.621Z,19.70
2023-02-13T08:56:36.418Z,20.70
2023-02-13T08:59:03.196Z,16.30
2023-02-13T09:01:29.882Z,19.40
2023-02-13T09:03:56.556Z,19.30
2023-02-13T09:06:25.585Z,18.80
2023-02-13T09:08:52.723Z,19.00
2023-02-13T09:11:22.214Z,21.70
2023-02-13T09:13:52.981Z,22.50
2023-02-13T09:16:20.288Z,21.50
2023-02-13T09:18:51.226Z,18.20
2023-02-13T09:21:20.621Z,20.90
2023-02-13T09:23:47.345Z,16.00
2023-02-13T09:26:15.928Z,14.60
2023-02-13T09:28:43.080Z,13.00
2023-02-13T09:31:16.093Z,11.50
2023-02-13T09:33:47.503Z,12.60
2023-02-13T09:36:21.124Z,12.60
2023-02-13T09:38:52.134Z,12.90
2023-02-13T09:41:28.763Z,11.30
2023-02-13T09:44:02.500Z,15.40
2023-02-13T09:46:31.894Z,13.30
2023-02-13T09:49:21.297Z,15.30
2023-02-13T09:51:54.199Z,16.10
2023-02-13T09:54:20.918Z,16.30
2023-02-13T09:57:01.158Z,19.80
2023-02-13T10:00:16.890Z,15.50
2023-02-13T10:03:06.387Z,18.00
2023-02-13T10:06:04.048Z,20.30
2023-02-13T10:09:25.570Z,18.00
2023-02-13T10:12:25.901Z,15.50
2023-02-13T10:15:27.917Z,16.30
2023-02-13T10:18:12.071Z,15.50
2023-02-13T10:20:47.086Z,13.80
2023-02-13T10:23:26.905Z,16.20
2023-02-13T10:26:12.493Z,16.20
2023-02-13T10:29:09.266Z,16.40
2023-02-13T10:31:38.667Z,14.80
2023-02-13T10:34:11.836Z,13.30
2023-02-13T10:36:43.891Z,12.70
2023-02-13T10:39:30.503Z,13.40
2023-02-13T10:42:22.211Z,17.40
2023-02-13T10:45:13.573Z,13.60
2023-02-13T10:48:12.125Z,17.40
2023-02-13T10:51:12.738Z,12.30
2023-02-13T10:54:03.817Z,13.20
2023-02-13T10:56:30.440Z,16.60
2023-02-13T10:59:10.991Z,13.90
2023-02-13T11:02:12.838Z,14.00
2023-02-13T11:04:43.154Z,11.60
2023-02-13T11:07:15.243Z,15.20
2023-02-13T11:09:43.686Z,13.60
2023-02-13T11:12:24.995Z,13.00
2023-02-13T11:15:29.896Z,14.40
2023-02-13T11:18:13.061Z,11.50
2023-02-13T11:20:47.306Z,15.10
2023-02-13T11:23:29.479Z,12.10
2023-02-13T11:25:59.933Z,13.60
2023-02-13T11:28:32.444Z,12.00
2023-02-13T11:31:30.269Z,10.90
2023-02-13T11:33:59.344Z,9.30
2023-02-13T11:36:33.294Z,10.10
2023-02-13T11:39:19.280Z,12.30
2023-02-13T11:41:50.252Z,10.70
2023-02-13T11:44:28.526Z,12.90
2023-02-13T11:47:00.679Z,13.10
2023-02-13T11:49:33.668Z,10.80
2023-02-13T11:52:04.274Z,10.70
2023-02-13T11:54:44.640Z,12.60
2023-02-13T11:57:27.900Z,11.60
2023-02-13T11:59:55.139Z,12.30
2023-02-13T12:02:46.816Z,10.10
2023-02-13T12:05:23.172Z,14.80
2023-02-13T12:07:50.533Z,10.60
2023-02-13T12:10:26.759Z,12.10
2023-02-13T12:13:22.444Z,13.40
2023-02-13T12:15:57.295Z,11.10
2023-02-13T12:18:38.048Z,11.20
2023-02-13T12:21:32.450Z,11.00
2023-02-13T12:24:04.013Z,13.30
2023-02-13T12:26:45.077Z,14.80
2023-02-13T12:29:41.952Z,16.90
2023-02-13T12:32:30.401Z,14.90
2023-02-13T12:35:37.583Z,18.10
2023-02-13T12:38:16.286Z,12.30
2023-02-13T12:41:15.584Z,15.90
2023-02-13T12:44:06.879Z,11.70
2023-02-13T12:46:55.278Z,15.30
2023-02-13T12:50:02.047Z,15.40
2023-02-13T12:52:56.229Z,14.40
2023-02-13T12:55:36.907Z,12.50
2023-02-13T12:58:54.523Z,13.00
2023-02-13T13:01:59.257Z,12.90
2023-02-13T13:04:36.036Z,13.50
2023-02-13T13:07:27.229Z,15.60
2023-02-13T13:10:23.376Z,14.10
2023-02-13T13:12:50.054Z,15.80
2023-02-13T13:16:04.109Z,18.40
2023-02-13T13:19:04.461Z,20.40
2023-02-13T13:21:38.254Z,17.00
2023-02-13T13:24:40.739Z,21.00
2023-02-13T13:27:45.821Z,19.00
2023-02-13T13:30:35.692Z,17.90
2023-02-13T13:33:21.317Z,18.90
2023-02-13T13:36:09.649Z,19.50
2023-02-13T13:39:14.794Z,19.40
2023-02-13T13:42:07.638Z,17.30
2023-02-13T13:45:19.162Z,19.10
2023-02-13T13:48:15.865Z,14.80
2023-02-13T13:50:43.874Z,17.80
2023-02-13T13:53:20.197Z,14.60
2023-02-13T13:55:49.627Z,13.60
2023-02-13T13:58:40.809Z,14.50
2023-02-13T14:01:30.400Z,11.80
2023-02-13T14:03:58.450Z,11.90
2023-02-13T14:06:55.720Z,14.10
2023-02-13T14:09:40.784Z,10.40
2023-02-13T14:12:28.404Z,11.80
2023-02-13T14:14:57.107Z,11.70
2023-02-13T14:17:45.216Z,13.90
2023-02-13T14:20:51.995Z,13.10
2023-02-13T14:23:36.917Z,13.10
2023-02-13T14:26:21.621Z,10.60
2023-02-13T14:28:48.258Z,14.40
2023-02-13T14:31:40.388Z,13.20
2023-02-13T14:34:16.411Z,15.10
2023-02-13T14:37:26.696Z,12.70
2023-02-13T14:40:15.171Z,18.10
2023-02-13T14:42:46.077Z,16.60
2023-02-13T14:45:26.587Z,19.90
2023-02-13T14:47:56.421Z,18.60
2023-02-13T14:50:53.240Z,20.80
2023-02-13T14:53:33.522Z,21.20
2023-02-13T14:56:18.925Z,18.50
2023-02-13T14:59:17.183Z,17.00
2023-02-13T15:01:52.885Z,21.00
2023-02-13T15:04:39.920Z,16.80
2023-02-13T15:07:14.079Z,17.90
2023-02-13T15:09:46.784Z,19.90
2023-02-13T15:14:52.398Z,21.30
2023-02-13T15:17:26.425Z,19.00
2023-02-13T15:19:56.039Z,15.90
2023-02-13T15:22:41.339Z,13.50
2023-02-13T15:25:09.044Z,14.90
2023-02-13T15:27:42.895Z,15.30
2023-02-13T15:30:25.251Z,18.80
2023-02-13T15:33:14.049Z,15.10
2023-02-13T15:35:40.666Z,25.30
2023-02-13T15:38:30.893Z,16.80
2023-02-13T15:41:12.747Z,16.60
2023-02-13T15:43:43.313Z,18.10
2023-02-13T15:46:38.035Z,14.80
2023-02-13T15:49:21.832Z,16.30
2023-02-13T15:52:01.202Z,13.90
2023-02-13T15:54:32.718Z,18.30
2023-02-13T15:57:03.401Z,15.80
2023-02-13T16:02:22.428Z,18.10
2023-02-13T16:04:53.178Z,14.00
2023-02-13T16:07:20.187Z,14.40
2023-02-13T16:09:47.177Z,18.60
2023-02-13T16:12:16.885Z,15.40
2023-02-13T16:14:55.159Z,16.20
2023-02-13T16:17:30.796Z,17.00
2023-02-13T16:20:04.850Z,16.50
2023-02-13T16:22:43.576Z,16.40
2023-02-13T16:25:15.802Z,15.50
2023-02-13T16:27:51.187Z,16.00
2023-02-13T16:30:37.372Z,14.70
2023-02-13T16:33:16.337Z,15.60
2023-02-13T16:35:49.724Z,16.50
2023-02-13T16:38:49.635Z,14.40
2023-02-13T16:41:19.379Z,21.20
2023-02-13T16:44:05.917Z,21.40
2023-02-13T16:46:51.963Z,17.90
2023-02-13T16:49:29.298Z,18.50
2023-02-13T16:52:07.814Z,19.30
2023-02-13T16:54:43.686Z,14.40
2023-02-13T16:57:13.109Z,19.60
2023-02-13T17:00:27.606Z,20.10
2023-02-13T17:02:54.399Z,17.10
2023-02-13T17:05:29.671Z,20.70
2023-02-13T17:08:04.057Z,16.00
2023-02-13T17:10:39.697Z,19.40
2023-02-13T17:13:11.102Z,18.30
2023-02-13T17:15:44.046Z,18.10
2023-02-13T17:18:11.805Z,15.90
2023-02-13T17:20:42.131Z,17.30
2023-02-13T17:23:20.790Z,15.50
2023-02-13T17:25:50.973Z,16.90
2023-02-13T17:28:22.362Z,14.30
2023-02-13T17:30:52.786Z,18.20
2023-02-13T17:33:27.502Z,17.30
2023-02-13T17:35:55.664Z,16.00
2023-02-13T17:38:23.613Z,16.40
2023-02-13T17:40:51.350Z,18.30
2023-02-13T17:43:19.943Z,14.60
2023-02-13T17:45:48.986Z,14.80
2023-02-13T17:48:16.057Z,18.10
2023-02-13T17:50:43.177Z,14.70
2023-02-13T17:53:37.152Z,15.80
2023-02-13T17:56:04.850Z,17.10
2023-02-13T17:58:32.074Z,15.70
2023-02-13T18:00:59.806Z,13.70
2023-02-13T18:03:28.565Z,14.70
2023-02-13T18:05:55.433Z,15.40
2023-02-13T18:08:22.931Z,18.50
2023-02-13T18:10:49.955Z,19.10
2023-02-13T18:13:17.263Z,18.30
2023-02-13T18:15:45.057Z,18.50
2023-02-13T18:18:15.301Z,20.10
2023-02-13T18:20:43.355Z,19.00
2023-02-13T18:23:10.545Z,16.60
2023-02-13T18:25:37.459Z,18.20
2023-02-13T18:28:07.816Z,16.50
2023-02-13T18:30:34.877Z,17.70
2023-02-13T18:33:04.469Z,17.30
2023-02-13T18:35:32.806Z,16.80
2023-02-13T18:38:03.670Z,17.50
2023-02-13T18:40:31.016Z,16.00
2023-02-13T18:43:02.103Z,17.30
2023-02-13T18:45:37.480Z,15.50
2023-02-13T18:48:09.630Z,16.50
2023-02-13T18:50:42.475Z,15.20
2023-02-13T18:53:10.744Z,16.80
2023-02-13T18:55:38.844Z,17.40
2023-02-13T18:58:06.584Z,16.60
2023-02-13T19:00:33.715Z,20.30
2023-02-13T19:03:03.665Z,19.80
2023-02-13T19:05:30.662Z,21.40
2023-02-13T19:08:00.561Z,19.90
2023-02-13T19:10:28.014Z,18.60
2023-02-13T19:12:55.239Z,22.70
2023-02-13T19:15:22.152Z,16.70
2023-02-13T19:17:56.503Z,19.20
2023-02-13T19:20:23.911Z,14.80
2023-02-13T19:22:50.757Z,19.90
2023-02-13T19:25:23.682Z,16.60
2023-02-13T19:27:50.596Z,15.80
2023-02-13T19:30:17.797Z,19.60
2023-02-13T19:32:44.835Z,19.20
2023-02-13T19:35:11.538Z,18.30
2023-02-13T19:37:43.879Z,18.20
2023-02-13T19:40:13.198Z,17.20
2023-02-13T19:42:44.178Z,16.70
2023-02-13T19:45:11.197Z,16.90
2023-02-13T19:47:38.093Z,21.30
2023-02-13T19:50:06.393Z,20.10
2023-02-13T19:52:33.550Z,18.70
2023-02-13T19:55:01.356Z,20.80
2023-02-13T19:57:28.569Z,21.10
2023-02-13T19:59:55.524Z,22.50
2023-02-13T20:02:24.005Z,22.10
2023-02-13T20:04:53.399Z,17.10
2023-02-13T20:07:20.557Z,21.50
2023-02-13T20:09:47.679Z,19.00
2023-02-13T20:12:14.749Z,18.70
2023-02-13T20:14:41.698Z,20.90
2023-02-13T20:17:08.759Z,22.80
2023-02-13T20:19:35.944Z,21.80
2023-02-13T20:22:03.040Z,21.00
2023-02-13T20:24:30.205Z,19.40
2023-02-13T20:26:58.474Z,23.50
2023-02-13T20:29:25.652Z,18.90
2023-02-13T20:31:52.978Z,21.00
2023-02-13T20:34:20.223Z,20.10
2023-02-13T20:36:47.160Z,22.70
2023-02-13T20:39:14.271Z,22.60
2023-02-13T20:41:41.986Z,22.90
2023-02-13T20:44:12.831Z,20.30
2023-02-13T20:46:41.585Z,23.20
2023-02-13T20:49:11.205Z,22.10
2023-02-13T20:51:38.641Z,24.10
2023-02-13T20:54:05.663Z,20.70
2023-02-13T20:56:32.897Z,19.70
2023-02-13T20:59:01.973Z,20.90
2023-02-13T21:01:33.355Z,19.40
2023-02-13T21:04:10.695Z,21.30
2023-02-13T21:06:38.381Z,22.40
2023-02-13T21:09:07.977Z,23.90
2023-02-13T21:11:43.069Z,22.30
2023-02-13T21:14:13.653Z,22.10
2023-02-13T21:16:42.158Z,18.10
2023-02-13T21:19:22.928Z,24.80
2023-02-13T21:21:54.982Z,21.70
2023-02-13T21:24:23.044Z,19.50
2023-02-13T21:26:52.008Z,18.90
2023-02-13T21:29:19.481Z,17.10
2023-02-13T21:31:47.372Z,20.00
2023-02-13T21:34:16.482Z,20.50
2023-02-13T21:36:44.220Z,18.90
2023-02-13T21:39:12.644Z,18.20
2023-02-13T21:41:44.419Z,20.10
2023-02-13T21:44:13.964Z,22.30
2023-02-13T21:46:41.307Z,22.40
2023-02-13T21:49:15.216Z,21.20
2023-02-13T21:51:45.766Z,19.40
2023-02-13T21:54:13.207Z,22.10
2023-02-13T21:56:41.466Z,22.90
2023-02-13T21:59:08.532Z,27.70
2023-02-13T22:01:37.245Z,24.90
2023-02-13T22:04:07.260Z,26.30
2023-02-13T22:06:36.960Z,22.10
2023-02-13T22:09:15.892Z,28.40
2023-02-13T22:11:42.825Z,25.40
2023-02-13T22:14:16.461Z,27.10
2023-02-13T22:16:44.400Z,24.20
2023-02-13T22:19:13.756Z,24.00
2023-02-13T22:21:40.634Z,23.30
2023-02-13T22:24:07.714Z,22.40
2023-02-13T22:26:41.129Z,23.50
2023-02-13T22:29:12.000Z,20.10
2023-02-13T22:31:39.580Z,23.90
2023-02-13T22:34:06.827Z,21.70
2023-02-13T22:36:39.527Z,22.20
2023-02-13T22:41:34.616Z,21.20
2023-02-13T22:44:01.319Z,28.30
2023-02-13T22:46:30.815Z,21.00
2023-02-13T22:48:58.630Z,23.30
2023-02-13T22:51:32.051Z,23.10
2023-02-13T22:53:59.784Z,29.90
2023-02-13T22:56:28.583Z,23.00
2023-02-13T22:58:55.942Z,23.00
2023-02-13T23:01:25.836Z,24.40
2023-02-13T23:03:54.345Z,24.50
2023-02-13T23:06:22.849Z,23.40
2023-02-13T23:08:51.875Z,24.10
2023-02-13T23:11:53.696Z,22.20
2023-02-13T23:14:24.288Z,21.20
2023-02-13T23:17:09.447Z,25.10
2023-02-13T23:19:36.193Z,21.90
2023-02-13T23:22:02.909Z,25.90
2023-02-13T23:24:30.423Z,25.60
2023-02-13T23:26:58.893Z,22.70
2023-02-13T23:29:26.027Z,24.70
2023-02-13T23:31:53.253Z,26.80
2023-02-13T23:34:22.527Z,24.20
2023-02-13T23:36:49.310Z,24.50
2023-02-13T23:39:16.095Z,19.70
2023-02-13T23:41:46.716Z,26.20
2023-02-13T23:44:13.840Z,24.80
2023-02-13T23:46:40.620Z,27.80
2023-02-13T23:49:07.722Z,18.80
2023-02-13T23:51:34.608Z,23.20
2023-02-13T23:54:01.664Z,19.10
2023-02-13T23:56:28.588Z,24.30
2023-02-13T23:58:56.022Z,24.60
